createdAt,value
2018-07-31T00:03:57.266Z,6.50
2018-07-31T00:08:51.604Z,6.90
2018-07-31T00:13:44.690Z,6.50
2018-07-31T00:18:37.696Z,6.55
2018-07-31T00:23:30.745Z,6.37
2018-07-31T00:28:23.788Z,7.20
2018-07-31T00:33:16.821Z,7.08
2018-07-31T00:38:09.860Z,6.55
2018-07-31T00:43:02.932Z,6.40
2018-07-31T00:47:55.950Z,6.17
2018-07-31T00:52:48.981Z,6.37
2018-07-31T00:57:41.985Z,6.53
2018-07-31T01:02:34.918Z,6.40
2018-07-31T01:07:27.970Z,6.53
2018-07-31T01:12:20.997Z,6.72
2018-07-31T01:17:13.955Z,6.93
2018-07-31T01:22:06.983Z,6.67
2018-07-31T01:26:59.973Z,6.03
2018-07-31T01:31:52.996Z,6.53
2018-07-31T01:36:47.046Z,6.30
2018-07-31T01:41:40.539Z,6.43
2018-07-31T01:46:33.562Z,6.10
2018-07-31T01:51:26.581Z,6.20
2018-07-31T01:56:19.526Z,6.47
2018-07-31T02:01:12.572Z,6.20
2018-07-31T02:06:05.657Z,6.50
2018-07-31T02:10:58.644Z,6.90
2018-07-31T02:15:51.666Z,7.03
2018-07-31T02:20:44.711Z,6.63
2018-07-31T02:25:38.134Z,6.73
2018-07-31T02:30:31.140Z,6.43
2018-07-31T02:35:24.163Z,6.80
2018-07-31T02:40:17.183Z,6.57
2018-07-31T02:45:12.624Z,6.57
2018-07-31T02:50:06.829Z,6.33
2018-07-31T02:54:59.841Z,6.33
2018-07-31T02:59:52.873Z,6.63
2018-07-31T03:04:45.948Z,6.70
2018-07-31T03:09:38.956Z,7.00
2018-07-31T03:14:32.013Z,6.80
2018-07-31T03:19:25.054Z,6.80
2018-07-31T03:24:18.068Z,6.63
2018-07-31T03:29:11.126Z,6.50
2018-07-31T03:34:04.300Z,7.20
2018-07-31T03:38:57.304Z,7.47
2018-07-31T03:43:50.319Z,7.50
2018-07-31T03:48:43.335Z,7.10
2018-07-31T03:53:36.337Z,7.13
2018-07-31T03:58:29.336Z,7.03
2018-07-31T04:03:22.329Z,7.63
2018-07-31T04:08:15.340Z,7.33
2018-07-31T04:13:08.346Z,7.87
2018-07-31T04:18:01.360Z,7.53
2018-07-31T04:22:54.415Z,8.40
2018-07-31T04:27:47.454Z,7.60
2018-07-31T04:32:40.526Z,7.37
2018-07-31T04:37:33.613Z,7.92
2018-07-31T04:42:26.666Z,7.97
2018-07-31T04:47:19.664Z,7.15
2018-07-31T04:52:12.664Z,8.15
2018-07-31T04:57:05.689Z,8.18
2018-07-31T05:01:58.768Z,7.75
2018-07-31T05:06:51.820Z,8.00
2018-07-31T05:11:44.932Z,8.63
2018-07-31T05:16:37.918Z,9.68
2018-07-31T05:21:30.975Z,9.00
2018-07-31T05:26:24.047Z,9.00
2018-07-31T05:31:17.083Z,6.95
2018-07-31T05:36:10.120Z,6.33
2018-07-31T05:41:03.160Z,7.58
2018-07-31T05:45:56.164Z,9.30
2018-07-31T05:50:49.196Z,6.40
2018-07-31T05:55:42.189Z,7.97
2018-07-31T06:00:35.230Z,6.70
2018-07-31T06:05:28.331Z,6.80
2018-07-31T06:10:21.433Z,7.22
2018-07-31T06:15:14.614Z,8.05
2018-07-31T06:20:14.417Z,7.37
2018-07-31T06:25:08.125Z,7.97
2018-07-31T06:30:01.392Z,6.65
2018-07-31T06:34:54.576Z,6.67
2018-07-31T06:39:47.593Z,7.83
2018-07-31T06:44:41.737Z,6.83
2018-07-31T06:49:35.280Z,7.45
2018-07-31T06:54:28.804Z,7.95
2018-07-31T06:59:21.890Z,7.72
2018-07-31T07:04:15.015Z,7.28
2018-07-31T07:09:10.084Z,7.75
2018-07-31T07:14:03.199Z,7.20
2018-07-31T07:19:15.738Z,7.50
2018-07-31T07:24:08.852Z,7.75
2018-07-31T07:29:02.081Z,7.45
2018-07-31T07:33:55.177Z,8.18
2018-07-31T07:38:53.730Z,7.30
2018-07-31T07:43:47.196Z,7.12
2018-07-31T07:48:40.498Z,7.65
2018-07-31T07:53:33.660Z,8.00
2018-07-31T07:58:26.715Z,7.83
2018-07-31T08:03:19.823Z,7.22
2018-07-31T08:08:12.907Z,8.18
2018-07-31T08:13:06.224Z,7.92
2018-07-31T08:18:00.081Z,7.55
2018-07-31T08:22:53.160Z,7.47
2018-07-31T08:27:46.697Z,6.87
2018-07-31T08:32:39.737Z,7.55
2018-07-31T08:37:32.981Z,6.70
2018-07-31T08:42:26.664Z,7.40
2018-07-31T08:47:20.645Z,7.55
2018-07-31T08:52:14.589Z,6.95
2018-07-31T08:57:07.696Z,6.83
2018-07-31T09:02:00.813Z,7.28
2018-07-31T09:06:53.980Z,6.72
2018-07-31T09:11:47.080Z,6.78
2018-07-31T09:16:40.220Z,7.00
2018-07-31T09:21:33.352Z,7.15
2018-07-31T09:26:27.048Z,7.17
2018-07-31T09:31:22.208Z,6.42
2018-07-31T09:36:15.764Z,7.10
2018-07-31T09:41:12.932Z,7.10
2018-07-31T09:46:07.722Z,7.05
2018-07-31T09:51:00.944Z,6.35
2018-07-31T09:55:54.043Z,6.92
2018-07-31T10:00:52.773Z,6.55
2018-07-31T10:05:46.028Z,7.35
2018-07-31T10:10:39.113Z,7.03
2018-07-31T10:15:32.216Z,8.25
2018-07-31T10:20:25.524Z,6.62
2018-07-31T10:25:18.716Z,6.95
2018-07-31T10:30:11.868Z,5.72
2018-07-31T10:35:05.079Z,6.53
2018-07-31T10:39:58.391Z,6.10
2018-07-31T10:44:51.545Z,6.72
2018-07-31T10:49:44.722Z,6.20
2018-07-31T10:54:37.813Z,6.10
2018-07-31T10:59:31.136Z,5.85
2018-07-31T11:04:24.480Z,5.95
2018-07-31T11:09:17.705Z,5.53
2018-07-31T11:14:11.002Z,5.15
2018-07-31T11:19:04.280Z,5.53
2018-07-31T11:23:57.344Z,5.12
2018-07-31T11:28:50.582Z,5.50
2018-07-31T11:33:44.684Z,5.90
2018-07-31T11:38:37.761Z,5.33
2018-07-31T11:43:31.271Z,5.40
2018-07-31T11:48:27.583Z,5.20
2018-07-31T11:53:21.321Z,5.30
2018-07-31T11:58:14.414Z,5.05
2018-07-31T12:03:07.545Z,4.80
2018-07-31T12:08:00.561Z,5.12
2018-07-31T12:12:53.886Z,5.08
2018-07-31T12:17:47.306Z,5.15
2018-07-31T12:22:40.459Z,5.08
2018-07-31T12:27:33.512Z,4.78
2018-07-31T12:32:26.534Z,4.80
2018-07-31T12:37:20.004Z,5.08
2018-07-31T12:42:13.198Z,5.40
2018-07-31T12:47:06.375Z,4.70
2018-07-31T12:51:59.544Z,4.90
2018-07-31T12:56:52.792Z,4.85
2018-07-31T13:01:45.871Z,5.72
2018-07-31T13:06:46.958Z,4.90
2018-07-31T13:11:40.354Z,5.28
2018-07-31T13:16:34.668Z,5.10
2018-07-31T13:21:27.884Z,4.12
2018-07-31T13:26:21.127Z,4.97
2018-07-31T13:31:14.396Z,4.80
2018-07-31T13:36:12.913Z,4.50
2018-07-31T13:41:07.865Z,5.50
2018-07-31T13:46:01.653Z,4.70
2018-07-31T13:50:54.756Z,4.40
2018-07-31T13:55:47.955Z,4.30
2018-07-31T14:00:41.186Z,4.33
2018-07-31T14:05:35.030Z,3.80
2018-07-31T14:10:28.163Z,4.30
2018-07-31T14:15:21.432Z,4.00
2018-07-31T14:20:14.653Z,3.98
2018-07-31T14:25:07.943Z,3.60
2018-07-31T14:30:01.305Z,4.03
2018-07-31T14:34:54.428Z,3.75
2018-07-31T14:39:47.812Z,4.37
2018-07-31T14:44:41.345Z,3.90
2018-07-31T14:49:34.525Z,3.90
2018-07-31T14:54:27.951Z,4.12
2018-07-31T14:59:25.067Z,4.30
2018-07-31T15:04:18.072Z,4.87
2018-07-31T15:09:11.260Z,4.33
2018-07-31T15:14:04.788Z,5.03
2018-07-31T15:18:57.824Z,4.55
2018-07-31T15:23:50.799Z,4.42
2018-07-31T15:28:43.839Z,4.30
2018-07-31T15:33:36.889Z,4.12
2018-07-31T15:38:29.920Z,4.30
2018-07-31T15:43:23.045Z,4.08
2018-07-31T15:48:16.086Z,4.22
2018-07-31T15:53:10.224Z,3.92
2018-07-31T15:58:03.357Z,4.53
2018-07-31T16:02:56.403Z,4.50
2018-07-31T16:07:49.400Z,3.95
2018-07-31T16:12:42.537Z,3.95
2018-07-31T16:17:35.612Z,3.80
2018-07-31T16:22:29.359Z,3.75
2018-07-31T16:27:22.669Z,3.83
2018-07-31T16:32:15.827Z,3.83
2018-07-31T16:37:08.911Z,3.90
2018-07-31T16:42:01.953Z,3.80
2018-07-31T16:46:54.952Z,3.75
2018-07-31T16:51:48.035Z,3.90
2018-07-31T16:56:41.038Z,4.10
2018-07-31T17:01:34.121Z,3.77
2018-07-31T17:06:27.193Z,3.72
2018-07-31T17:11:20.195Z,4.10
2018-07-31T17:16:13.228Z,4.10
2018-07-31T17:21:06.666Z,3.92
2018-07-31T17:25:59.680Z,4.25
2018-07-31T17:30:52.724Z,3.10
2018-07-31T17:35:45.796Z,3.98
2018-07-31T17:40:38.840Z,3.87
2018-07-31T17:45:31.857Z,4.10
2018-07-31T17:50:24.892Z,4.28
2018-07-31T17:55:17.938Z,4.37
2018-07-31T18:00:10.898Z,4.50
2018-07-31T18:05:04.085Z,4.53
2018-07-31T18:09:57.129Z,4.53
2018-07-31T18:14:50.237Z,4.47
2018-07-31T18:19:43.204Z,5.03
2018-07-31T18:24:36.229Z,4.55
2018-07-31T18:29:29.244Z,4.55
2018-07-31T18:34:22.304Z,4.55
2018-07-31T18:39:15.336Z,4.85
2018-07-31T18:44:09.102Z,4.83
2018-07-31T18:49:02.200Z,4.78
2018-07-31T18:53:55.222Z,4.97
2018-07-31T18:58:48.247Z,5.20
2018-07-31T19:03:41.252Z,5.15
2018-07-31T19:08:34.299Z,5.30
2018-07-31T19:13:27.360Z,5.80
2018-07-31T19:18:20.437Z,5.55
2018-07-31T19:23:13.472Z,6.28
2018-07-31T19:28:06.581Z,5.80
2018-07-31T19:32:59.654Z,5.95
2018-07-31T19:37:52.653Z,5.92
2018-07-31T19:42:45.665Z,6.12
2018-07-31T19:47:38.668Z,6.28
2018-07-31T19:52:31.676Z,5.85
2018-07-31T19:57:24.793Z,5.87
2018-07-31T20:02:17.877Z,6.58
2018-07-31T20:07:10.881Z,5.90
2018-07-31T20:12:03.980Z,5.83
2018-07-31T20:16:57.010Z,6.33
2018-07-31T20:21:50.029Z,6.00
2018-07-31T20:26:43.157Z,5.90
2018-07-31T20:31:36.193Z,5.53
2018-07-31T20:36:29.201Z,6.10
2018-07-31T20:41:22.296Z,5.78
2018-07-31T20:46:15.585Z,5.62
2018-07-31T20:51:08.625Z,5.25
2018-07-31T20:56:01.628Z,5.78
2018-07-31T21:00:54.752Z,5.62
2018-07-31T21:05:47.806Z,5.22
2018-07-31T21:10:40.828Z,5.50
2018-07-31T21:15:33.873Z,5.30
2018-07-31T21:20:26.920Z,5.28
2018-07-31T21:25:19.997Z,4.80
2018-07-31T21:30:12.993Z,5.58
2018-07-31T21:35:05.987Z,5.55
2018-07-31T21:39:59.016Z,5.55
2018-07-31T21:44:52.044Z,5.90
2018-07-31T21:49:45.024Z,5.45
2018-07-31T21:54:38.368Z,5.33
2018-07-31T21:59:31.453Z,5.90
2018-07-31T22:04:24.442Z,5.75
2018-07-31T22:09:22.000Z,5.75
2018-07-31T22:14:15.020Z,5.20
2018-07-31T22:19:08.040Z,6.58
2018-07-31T22:24:00.991Z,6.62
2018-07-31T22:28:54.000Z,6.08
2018-07-31T22:33:47.018Z,5.90
2018-07-31T22:38:40.024Z,6.80
2018-07-31T22:43:33.168Z,6.62
2018-07-31T22:48:26.184Z,6.58
2018-07-31T22:53:19.225Z,6.10
2018-07-31T22:58:12.252Z,6.78
2018-07-31T23:03:05.331Z,6.05
2018-07-31T23:07:58.392Z,6.30
2018-07-31T23:12:51.416Z,6.58
2018-07-31T23:17:44.499Z,6.12
2018-07-31T23:22:43.497Z,6.67
2018-07-31T23:27:37.064Z,6.40
2018-07-31T23:32:30.085Z,6.60
2018-07-31T23:37:23.090Z,6.22
2018-07-31T23:42:16.101Z,6.25
2018-07-31T23:47:09.116Z,5.97
2018-07-31T23:52:02.188Z,6.20
2018-07-31T23:56:55.188Z,5.42
